sensor_id;sensor_type;location;lat;lon;timestamp;pressure;altitude;pressure_sealevel;temperature;humidity
41688;BME280;27371;42.686;23.362;2022-08-14T00:03:54;94320.41;;;18.15;88.40
41688;BME280;27371;42.686;23.362;2022-08-14T00:06:19;94335.47;;;18.22;88.10
41688;BME280;27371;42.686;23.362;2022-08-14T00:08:45;94321.28;;;18.10;88.02
41688;BME280;27371;42.686;23.362;2022-08-14T00:11:10;94319.59;;;17.99;88.46
41688;BME280;27371;42.686;23.362;2022-08-14T00:13:36;94309.09;;;17.90;88.89
41688;BME280;27371;42.686;23.362;2022-08-14T00:16:01;94320.31;;;17.92;89.11
41688;BME280;27371;42.686;23.362;2022-08-14T00:18:27;94306.88;;;17.89;89.65
41688;BME280;27371;42.686;23.362;2022-08-14T00:20:55;94307.78;;;17.84;89.70
41688;BME280;27371;42.686;23.362;2022-08-14T00:23:22;94299.63;;;17.78;89.83
41688;BME280;27371;42.686;23.362;2022-08-14T00:25:51;94307.03;;;17.83;89.77
41688;BME280;27371;42.686;23.362;2022-08-14T00:28:17;94305.91;;;17.78;89.89
41688;BME280;27371;42.686;23.362;2022-08-14T00:30:45;94313.47;;;17.86;89.58
41688;BME280;27371;42.686;23.362;2022-08-14T00:33:11;94302.38;;;17.78;89.25
41688;BME280;27371;42.686;23.362;2022-08-14T00:35:37;94321.72;;;17.86;89.49
41688;BME280;27371;42.686;23.362;2022-08-14T00:38:02;94320.31;;;17.92;89.45
41688;BME280;27371;42.686;23.362;2022-08-14T00:40:28;94314.03;;;17.92;89.15
41688;BME280;27371;42.686;23.362;2022-08-14T00:42:54;94308.00;;;17.93;89.13
41688;BME280;27371;42.686;23.362;2022-08-14T00:45:19;94315.56;;;18.00;88.87
41688;BME280;27371;42.686;23.362;2022-08-14T00:47:46;94312.41;;;17.96;88.37
41688;BME280;27371;42.686;23.362;2022-08-14T00:50:16;94307.84;;;17.99;88.76
41688;BME280;27371;42.686;23.362;2022-08-14T00:52:42;94311.72;;;18.03;88.82
41688;BME280;27371;42.686;23.362;2022-08-14T00:55:09;94308.78;;;18.01;88.80
41688;BME280;27371;42.686;23.362;2022-08-14T00:57:36;94311.53;;;18.01;88.75
41688;BME280;27371;42.686;23.362;2022-08-14T01:00:08;94295.16;;;17.96;89.04
41688;BME280;27371;42.686;23.362;2022-08-14T01:02:35;94293.16;;;18.04;88.51
41688;BME280;27371;42.686;23.362;2022-08-14T01:05:02;94283.28;;;18.09;88.82
41688;BME280;27371;42.686;23.362;2022-08-14T01:07:32;94285.28;;;18.08;88.49
41688;BME280;27371;42.686;23.362;2022-08-14T01:09:59;94283.06;;;18.07;88.24
41688;BME280;27371;42.686;23.362;2022-08-14T01:12:30;94291.19;;;18.12;88.45
41688;BME280;27371;42.686;23.362;2022-08-14T01:14:59;94296.28;;;18.08;88.17
41688;BME280;27371;42.686;23.362;2022-08-14T01:17:27;94291.50;;;18.01;88.07
41688;BME280;27371;42.686;23.362;2022-08-14T01:20:11;94276.56;;;17.89;88.70
41688;BME280;27371;42.686;23.362;2022-08-14T01:22:55;94271.41;;;17.85;89.19
41688;BME280;27371;42.686;23.362;2022-08-14T01:25:21;94282.59;;;17.79;89.55
41688;BME280;27371;42.686;23.362;2022-08-14T01:27:46;94280.88;;;17.69;89.87
41688;BME280;27371;42.686;23.362;2022-08-14T01:30:12;94267.59;;;17.59;90.35
41688;BME280;27371;42.686;23.362;2022-08-14T01:32:38;94267.06;;;17.61;90.65
41688;BME280;27371;42.686;23.362;2022-08-14T01:35:04;94268.72;;;17.64;90.78
41688;BME280;27371;42.686;23.362;2022-08-14T01:37:32;94272.22;;;17.65;90.94
41688;BME280;27371;42.686;23.362;2022-08-14T01:39:58;94272.75;;;17.63;90.98
41688;BME280;27371;42.686;23.362;2022-08-14T01:42:25;94273.13;;;17.59;91.39
41688;BME280;27371;42.686;23.362;2022-08-14T01:44:54;94268.13;;;17.58;91.41
41688;BME280;27371;42.686;23.362;2022-08-14T01:47:21;94272.22;;;17.65;91.66
41688;BME280;27371;42.686;23.362;2022-08-14T01:49:48;94265.66;;;17.75;91.51
41688;BME280;27371;42.686;23.362;2022-08-14T01:52:14;94279.13;;;17.79;91.23
41688;BME280;27371;42.686;23.362;2022-08-14T01:54:40;94271.66;;;17.66;91.27
41688;BME280;27371;42.686;23.362;2022-08-14T01:57:06;94267.91;;;17.48;91.31
41688;BME280;27371;42.686;23.362;2022-08-14T01:59:36;94263.13;;;17.49;92.13
41688;BME280;27371;42.686;23.362;2022-08-14T02:02:06;94259.25;;;17.44;91.91
41688;BME280;27371;42.686;23.362;2022-08-14T02:04:37;94268.06;;;17.43;92.57
41688;BME280;27371;42.686;23.362;2022-08-14T02:07:04;94276.34;;;17.43;92.96
41688;BME280;27371;42.686;23.362;2022-08-14T02:09:30;94272.78;;;17.34;92.79
41688;BME280;27371;42.686;23.362;2022-08-14T02:12:01;94275.41;;;17.40;92.96
41688;BME280;27371;42.686;23.362;2022-08-14T02:14:27;94271.16;;;17.39;92.88
41688;BME280;27371;42.686;23.362;2022-08-14T02:16:54;94259.81;;;17.43;92.79
41688;BME280;27371;42.686;23.362;2022-08-14T02:19:23;94256.69;;;17.46;92.89
41688;BME280;27371;42.686;23.362;2022-08-14T02:21:53;94263.88;;;17.49;92.25
41688;BME280;27371;42.686;23.362;2022-08-14T02:24:20;94261.13;;;17.49;92.54
41688;BME280;27371;42.686;23.362;2022-08-14T02:26:46;94267.19;;;17.48;92.21
41688;BME280;27371;42.686;23.362;2022-08-14T02:29:15;94248.97;;;17.45;92.27
41688;BME280;27371;42.686;23.362;2022-08-14T02:31:44;94255.41;;;17.47;92.47
41688;BME280;27371;42.686;23.362;2022-08-14T02:34:15;94255.47;;;17.55;92.45
41688;BME280;27371;42.686;23.362;2022-08-14T02:36:44;94254.56;;;17.60;92.13
41688;BME280;27371;42.686;23.362;2022-08-14T02:39:11;94256.03;;;17.61;91.57
41688;BME280;27371;42.686;23.362;2022-08-14T02:41:38;94256.03;;;17.61;91.62
41688;BME280;27371;42.686;23.362;2022-08-14T02:44:05;94258.63;;;17.67;91.51
41688;BME280;27371;42.686;23.362;2022-08-14T02:46:31;94254.06;;;17.69;91.08
41688;BME280;27371;42.686;23.362;2022-08-14T02:48:57;94258.47;;;17.72;90.95
41688;BME280;27371;42.686;23.362;2022-08-14T02:51:24;94255.56;;;17.78;91.04
41688;BME280;27371;42.686;23.362;2022-08-14T02:53:50;94249.75;;;17.82;90.67
41688;BME280;27371;42.686;23.362;2022-08-14T02:56:18;94250.13;;;17.86;90.44
41688;BME280;27371;42.686;23.362;2022-08-14T02:58:49;94255.09;;;17.87;90.52
41688;BME280;27371;42.686;23.362;2022-08-14T03:01:19;94251.22;;;17.83;90.63
41688;BME280;27371;42.686;23.362;2022-08-14T03:03:47;94253.22;;;17.82;90.68
41688;BME280;27371;42.686;23.362;2022-08-14T03:06:15;94249.56;;;17.87;90.35
41688;BME280;27371;42.686;23.362;2022-08-14T03:08:41;94256.72;;;17.83;90.39
41688;BME280;27371;42.686;23.362;2022-08-14T03:11:10;94254.72;;;17.91;90.23
41688;BME280;27371;42.686;23.362;2022-08-14T03:13:38;94258.22;;;17.91;89.71
41688;BME280;27371;42.686;23.362;2022-08-14T03:16:10;94258.56;;;17.88;89.47
41688;BME280;27371;42.686;23.362;2022-08-14T03:18:39;94256.91;;;17.85;89.08
41688;BME280;27371;42.686;23.362;2022-08-14T03:21:12;94257.84;;;17.87;88.80
41688;BME280;27371;42.686;23.362;2022-08-14T03:23:41;94251.41;;;17.85;88.72
41688;BME280;27371;42.686;23.362;2022-08-14T03:26:12;94248.44;;;17.83;88.81
41688;BME280;27371;42.686;23.362;2022-08-14T03:28:41;94262.63;;;17.87;88.42
41688;BME280;27371;42.686;23.362;2022-08-14T03:31:07;94262.22;;;17.83;88.52
41688;BME280;27371;42.686;23.362;2022-08-14T03:33:34;94276.72;;;17.83;88.69
41688;BME280;27371;42.686;23.362;2022-08-14T03:36:05;94281.16;;;17.86;88.72
41688;BME280;27371;42.686;23.362;2022-08-14T03:38:40;94275.31;;;17.90;88.47
41688;BME280;27371;42.686;23.362;2022-08-14T03:41:15;94284.66;;;17.94;88.51
41688;BME280;27371;42.686;23.362;2022-08-14T03:43:42;94260.97;;;17.91;88.39
41688;BME280;27371;42.686;23.362;2022-08-14T03:46:08;94276.25;;;18.00;88.30
41688;BME280;27371;42.686;23.362;2022-08-14T03:48:35;94285.44;;;18.02;88.18
41688;BME280;27371;42.686;23.362;2022-08-14T03:51:05;94278.09;;;17.97;88.04
41688;BME280;27371;42.686;23.362;2022-08-14T03:53:33;94280.81;;;17.90;88.26
41688;BME280;27371;42.686;23.362;2022-08-14T03:56:05;94272.72;;;17.92;88.26
41688;BME280;27371;42.686;23.362;2022-08-14T03:58:32;94269.59;;;17.88;88.09
41688;BME280;27371;42.686;23.362;2022-08-14T04:00:59;94282.84;;;17.97;88.00
41688;BME280;27371;42.686;23.362;2022-08-14T04:03:25;94283.03;;;17.99;87.66
41688;BME280;27371;42.686;23.362;2022-08-14T04:05:52;94282.84;;;17.97;87.77
41688;BME280;27371;42.686;23.362;2022-08-14T04:08:18;94275.66;;;17.94;87.83
41688;BME280;27371;42.686;23.362;2022-08-14T04:10:45;94280.25;;;17.91;87.90
41688;BME280;27371;42.686;23.362;2022-08-14T04:13:11;94282.84;;;17.97;88.06
41688;BME280;27371;42.686;23.362;2022-08-14T04:15:40;94275.34;;;17.97;87.86
41688;BME280;27371;42.686;23.362;2022-08-14T04:18:07;94279.94;;;18.02;87.69
41688;BME280;27371;42.686;23.362;2022-08-14T04:20:33;94288.75;;;18.01;87.47
41688;BME280;27371;42.686;23.362;2022-08-14T04:22:59;94272.41;;;18.03;87.29
41688;BME280;27371;42.686;23.362;2022-08-14T04:25:24;94276.84;;;18.06;87.24
41688;BME280;27371;42.686;23.362;2022-08-14T04:27:50;94270.41;;;18.03;87.33
41688;BME280;27371;42.686;23.362;2022-08-14T04:30:15;94273.31;;;17.98;87.61
41688;BME280;27371;42.686;23.362;2022-08-14T04:32:41;94270.38;;;17.96;87.77
41688;BME280;27371;42.686;23.362;2022-08-14T04:35:07;94273.31;;;17.98;87.83
41688;BME280;27371;42.686;23.362;2022-08-14T04:37:32;94279.56;;;17.98;88.06
41688;BME280;27371;42.686;23.362;2022-08-14T04:40:16;94279.75;;;18.00;88.21
41688;BME280;27371;42.686;23.362;2022-08-14T04:43:00;94278.44;;;17.94;88.35
41688;BME280;27371;42.686;23.362;2022-08-14T04:45:44;94276.41;;;17.94;88.59
41688;BME280;27371;42.686;23.362;2022-08-14T04:48:13;94269.06;;;17.97;88.39
41688;BME280;27371;42.686;23.362;2022-08-14T04:50:47;94283.81;;;18.07;88.44
41688;BME280;27371;42.686;23.362;2022-08-14T04:53:15;94277.75;;;18.09;88.71
41688;BME280;27371;42.686;23.362;2022-08-14T04:55:43;94276.47;;;18.10;88.67
41688;BME280;27371;42.686;23.362;2022-08-14T04:58:16;94286.59;;;18.15;88.68
41688;BME280;27371;42.686;23.362;2022-08-14T05:00:43;94292.47;;;18.19;89.08
41688;BME280;27371;42.686;23.362;2022-08-14T05:03:08;94285.69;;;18.20;88.90
41688;BME280;27371;42.686;23.362;2022-08-14T05:05:34;94284.59;;;18.23;88.92
41688;BME280;27371;42.686;23.362;2022-08-14T05:08:06;94282.19;;;18.19;88.56
41688;BME280;27371;42.686;23.362;2022-08-14T05:10:34;94281.13;;;18.22;88.64
41688;BME280;27371;42.686;23.362;2022-08-14T05:13:00;94280.91;;;18.20;88.13
41688;BME280;27371;42.686;23.362;2022-08-14T05:15:26;94265.47;;;18.17;88.09
41688;BME280;27371;42.686;23.362;2022-08-14T05:17:54;94278.34;;;18.22;87.94
41688;BME280;27371;42.686;23.362;2022-08-14T05:20:20;94284.22;;;18.19;87.80
41688;BME280;27371;42.686;23.362;2022-08-14T05:22:45;94277.06;;;18.23;87.79
41688;BME280;27371;42.686;23.362;2022-08-14T05:25:11;94287.38;;;18.31;87.73
41688;BME280;27371;42.686;23.362;2022-08-14T05:27:37;94280.78;;;18.34;87.05
41688;BME280;27371;42.686;23.362;2022-08-14T05:30:04;94281.34;;;18.40;86.77
41688;BME280;27371;42.686;23.362;2022-08-14T05:32:30;94286.69;;;18.45;86.75
41688;BME280;27371;42.686;23.362;2022-08-14T05:34:57;94291.66;;;18.47;86.31
41688;BME280;27371;42.686;23.362;2022-08-14T05:37:23;94280.78;;;18.41;86.77
41688;BME280;27371;42.686;23.362;2022-08-14T05:39:48;94276.19;;;18.44;86.96
41688;BME280;27371;42.686;23.362;2022-08-14T05:42:15;94289.97;;;18.44;87.24
41688;BME280;27371;42.686;23.362;2022-08-14T05:44:41;94286.47;;;18.36;86.76
41688;BME280;27371;42.686;23.362;2022-08-14T05:47:06;94292.38;;;18.40;86.87
41688;BME280;27371;42.686;23.362;2022-08-14T05:49:32;94291.25;;;18.43;86.36
41688;BME280;27371;42.686;23.362;2022-08-14T05:51:57;94294.41;;;18.47;86.05
41688;BME280;27371;42.686;23.362;2022-08-14T05:54:23;94279.31;;;18.40;85.60
41688;BME280;27371;42.686;23.362;2022-08-14T05:56:49;94284.84;;;18.48;84.76
41688;BME280;27371;42.686;23.362;2022-08-14T05:59:15;94287.03;;;18.42;85.04
41688;BME280;27371;42.686;23.362;2022-08-14T06:01:40;94292.91;;;18.46;85.25
41688;BME280;27371;42.686;23.362;2022-08-14T06:04:06;94291.81;;;18.49;85.91
41688;BME280;27371;42.686;23.362;2022-08-14T06:06:31;94285.22;;;18.52;85.79
41688;BME280;27371;42.686;23.362;2022-08-14T06:08:57;94294.06;;;18.58;85.89
41688;BME280;27371;42.686;23.362;2022-08-14T06:11:22;94290.53;;;18.58;85.30
41688;BME280;27371;42.686;23.362;2022-08-14T06:13:48;94283.19;;;18.45;85.86
41688;BME280;27371;42.686;23.362;2022-08-14T06:16:15;94301.25;;;18.61;85.79
41688;BME280;27371;42.686;23.362;2022-08-14T06:18:41;94302.91;;;18.64;85.44
41688;BME280;27371;42.686;23.362;2022-08-14T06:21:07;94293.88;;;18.64;85.25
41688;BME280;27371;42.686;23.362;2022-08-14T06:23:33;94310.25;;;18.69;84.81
41688;BME280;27371;42.686;23.362;2022-08-14T06:25:58;94306.91;;;18.63;85.03
41688;BME280;27371;42.686;23.362;2022-08-14T06:28:25;94304.91;;;18.56;85.20
41688;BME280;27371;42.686;23.362;2022-08-14T06:30:51;94303.94;;;18.46;85.58
41688;BME280;27371;42.686;23.362;2022-08-14T06:33:19;94306.16;;;18.40;85.96
41688;BME280;27371;42.686;23.362;2022-08-14T06:35:46;94304.69;;;18.39;86.21
41688;BME280;27371;42.686;23.362;2022-08-14T06:38:17;94312.75;;;18.37;86.26
41688;BME280;27371;42.686;23.362;2022-08-14T06:40:43;94302.97;;;18.20;86.94
41688;BME280;27371;42.686;23.362;2022-08-14T06:43:09;94322.09;;;18.26;87.28
41688;BME280;27371;42.686;23.362;2022-08-14T06:45:39;94321.16;;;18.23;87.21
41688;BME280;27371;42.686;23.362;2022-08-14T06:48:18;94319.31;;;18.18;88.00
41688;BME280;27371;42.686;23.362;2022-08-14T06:50:45;94315.84;;;18.25;88.01
41688;BME280;27371;42.686;23.362;2022-08-14T06:53:11;94307.03;;;18.27;88.07
41688;BME280;27371;42.686;23.362;2022-08-14T06:55:39;94317.53;;;18.36;87.88
41688;BME280;27371;42.686;23.362;2022-08-14T06:58:10;94315.84;;;18.25;87.63
41688;BME280;27371;42.686;23.362;2022-08-14T07:00:35;94309.53;;;18.10;88.98
41688;BME280;27371;42.686;23.362;2022-08-14T07:03:01;94312.28;;;18.10;89.40
41688;BME280;27371;42.686;23.362;2022-08-14T07:05:45;94314.66;;;18.06;89.22
41688;BME280;27371;42.686;23.362;2022-08-14T07:08:16;94308.41;;;18.05;89.54
41688;BME280;27371;42.686;23.362;2022-08-14T07:10:47;94316.88;;;18.07;89.87
41688;BME280;27371;42.686;23.362;2022-08-14T07:13:14;94315.56;;;18.00;90.10
41688;BME280;27371;42.686;23.362;2022-08-14T07:15:42;94305.81;;;17.99;89.82
41688;BME280;27371;42.686;23.362;2022-08-14T07:18:10;94309.75;;;18.12;90.26
41688;BME280;27371;42.686;23.362;2022-08-14T07:20:37;94316.03;;;18.20;89.99
41688;BME280;27371;42.686;23.362;2022-08-14T07:23:04;94323.03;;;18.29;89.46
41688;BME280;27371;42.686;23.362;2022-08-14T07:25:30;94323.06;;;18.36;89.37
41688;BME280;27371;42.686;23.362;2022-08-14T07:27:56;94304.25;;;18.27;89.03
41688;BME280;27371;42.686;23.362;2022-08-14T07:30:22;94321.03;;;18.37;88.67
41688;BME280;27371;42.686;23.362;2022-08-14T07:32:48;94320.47;;;18.38;89.17
41688;BME280;27371;42.686;23.362;2022-08-14T07:35:14;94315.72;;;18.46;88.58
41688;BME280;27371;42.686;23.362;2022-08-14T07:37:40;94310.03;;;18.52;88.16
41688;BME280;27371;42.686;23.362;2022-08-14T07:40:06;94311.16;;;18.64;88.21
41688;BME280;27371;42.686;23.362;2022-08-14T07:42:32;94308.97;;;18.70;87.18
41688;BME280;27371;42.686;23.362;2022-08-14T07:44:59;94320.03;;;18.78;86.67
41688;BME280;27371;42.686;23.362;2022-08-14T07:47:25;94320.25;;;18.80;83.61
41688;BME280;27371;42.686;23.362;2022-08-14T07:50:00;94323.28;;;18.69;83.63
41688;BME280;27371;42.686;23.362;2022-08-14T07:52:27;94332.09;;;18.60;81.43
41688;BME280;27371;42.686;23.362;2022-08-14T07:54:53;94328.94;;;18.40;80.26
41688;BME280;27371;42.686;23.362;2022-08-14T07:57:19;94327.84;;;18.43;82.17
41688;BME280;27371;42.686;23.362;2022-08-14T07:59:45;94335.44;;;18.58;81.18
41688;BME280;27371;42.686;23.362;2022-08-14T08:02:12;94331.00;;;18.63;80.93
41688;BME280;27371;42.686;23.362;2022-08-14T08:04:43;94321.84;;;18.68;82.01
41688;BME280;27371;42.686;23.362;2022-08-14T08:07:09;94331.81;;;18.86;82.30
41688;BME280;27371;42.686;23.362;2022-08-14T08:09:35;94333.47;;;19.05;81.82
41688;BME280;27371;42.686;23.362;2022-08-14T08:12:02;94325.59;;;19.17;80.77
41688;BME280;27371;42.686;23.362;2022-08-14T08:14:32;94331.28;;;19.26;80.14
41688;BME280;27371;42.686;23.362;2022-08-14T08:16:59;94325.38;;;19.38;79.47
41688;BME280;27371;42.686;23.362;2022-08-14T08:19:25;94318.94;;;19.50;77.94
41688;BME280;27371;42.686;23.362;2022-08-14T08:21:50;94324.44;;;19.58;74.58
41688;BME280;27371;42.686;23.362;2022-08-14T08:24:16;94320.91;;;19.65;74.19
41688;BME280;27371;42.686;23.362;2022-08-14T08:26:42;94316.00;;;19.71;73.86
41688;BME280;27371;42.686;23.362;2022-08-14T08:29:07;94318.91;;;19.73;73.15
41688;BME280;27371;42.686;23.362;2022-08-14T08:31:46;94308.41;;;19.79;74.31
41688;BME280;27371;42.686;23.362;2022-08-14T08:34:13;94317.03;;;19.84;74.71
41688;BME280;27371;42.686;23.362;2022-08-14T08:36:41;94318.69;;;19.87;74.62
41688;BME280;27371;42.686;23.362;2022-08-14T08:39:06;94323.69;;;19.88;73.88
41688;BME280;27371;42.686;23.362;2022-08-14T08:41:39;94317.22;;;19.93;74.18
41688;BME280;27371;42.686;23.362;2022-08-14T08:44:05;94317.16;;;20.01;74.30
41688;BME280;27371;42.686;23.362;2022-08-14T08:46:31;94310.50;;;20.12;74.52
41688;BME280;27371;42.686;23.362;2022-08-14T08:48:57;94307.72;;;20.19;73.89
41688;BME280;27371;42.686;23.362;2022-08-14T08:51:28;94318.94;;;20.29;73.45
41688;BME280;27371;42.686;23.362;2022-08-14T08:53:59;94324.38;;;20.44;71.93
41688;BME280;27371;42.686;23.362;2022-08-14T08:56:47;94315.66;;;20.56;72.26
41688;BME280;27371;42.686;23.362;2022-08-14T08:59:20;94313.78;;;20.66;71.24
41688;BME280;27371;42.686;23.362;2022-08-14T09:01:54;94307.16;;;20.61;70.95
41688;BME280;27371;42.686;23.362;2022-08-14T09:04:22;94298.47;;;20.65;71.35
41688;BME280;27371;42.686;23.362;2022-08-14T09:06:48;94299.31;;;20.75;71.09
41688;BME280;27371;42.686;23.362;2022-08-14T09:09:21;94301.31;;;20.82;70.90
41688;BME280;27371;42.686;23.362;2022-08-14T09:11:48;94300.41;;;20.80;70.04
41688;BME280;27371;42.686;23.362;2022-08-14T09:14:13;94297.28;;;20.76;71.02
41688;BME280;27371;42.686;23.362;2022-08-14T09:16:39;94305.75;;;20.78;70.99
41688;BME280;27371;42.686;23.362;2022-08-14T09:19:05;94293.97;;;20.77;70.40
41688;BME280;27371;42.686;23.362;2022-08-14T09:21:32;94289.88;;;20.78;70.27
41688;BME280;27371;42.686;23.362;2022-08-14T09:23:59;94298.19;;;20.78;70.48
41688;BME280;27371;42.686;23.362;2022-08-14T09:26:25;94292.00;;;20.95;69.82
41688;BME280;27371;42.686;23.362;2022-08-14T09:28:51;94297.88;;;20.99;69.03
41688;BME280;27371;42.686;23.362;2022-08-14T09:31:17;94288.47;;;20.95;68.46
41688;BME280;27371;42.686;23.362;2022-08-14T09:37:01;94298.97;;;21.21;67.62
41688;BME280;27371;42.686;23.362;2022-08-14T09:47:45;94300.47;;;21.82;66.06
41688;BME280;27371;42.686;23.362;2022-08-14T09:50:42;94302.91;;;21.95;64.58
41688;BME280;27371;42.686;23.362;2022-08-14T09:53:09;94301.34;;;22.02;64.13
41688;BME280;27371;42.686;23.362;2022-08-14T09:55:36;94302.00;;;22.10;63.65
41688;BME280;27371;42.686;23.362;2022-08-14T09:58:14;94299.56;;;22.14;63.42
41688;BME280;27371;42.686;23.362;2022-08-14T10:00:58;94298.97;;;22.33;63.13
41688;BME280;27371;42.686;23.362;2022-08-14T10:03:31;94296.72;;;22.49;62.38
41688;BME280;27371;42.686;23.362;2022-08-14T10:06:30;94298.56;;;22.64;61.90
41688;BME280;27371;42.686;23.362;2022-08-14T10:11:34;94296.91;;;22.88;60.09
41688;BME280;27371;42.686;23.362;2022-08-14T10:14:17;94296.56;;;23.01;60.23
41688;BME280;27371;42.686;23.362;2022-08-14T10:16:44;94302.34;;;23.23;59.45
41688;BME280;27371;42.686;23.362;2022-08-14T10:19:13;94306.03;;;23.35;57.95
41688;BME280;27371;42.686;23.362;2022-08-14T10:21:42;94306.00;;;23.25;57.94
41688;BME280;27371;42.686;23.362;2022-08-14T10:24:09;94295.00;;;23.08;58.27
41688;BME280;27371;42.686;23.362;2022-08-14T10:26:35;94287.06;;;23.04;58.75
41688;BME280;27371;42.686;23.362;2022-08-14T10:29:06;94286.06;;;23.09;59.22
41688;BME280;27371;42.686;23.362;2022-08-14T10:31:34;94288.78;;;23.37;59.05
41688;BME280;27371;42.686;23.362;2022-08-14T10:34:08;94285.16;;;23.53;57.37
41688;BME280;27371;42.686;23.362;2022-08-14T10:36:40;94276.06;;;23.43;57.05
41688;BME280;27371;42.686;23.362;2022-08-14T10:39:14;94281.91;;;23.47;56.37
41688;BME280;27371;42.686;23.362;2022-08-14T10:41:42;94272.41;;;23.41;56.30
41688;BME280;27371;42.686;23.362;2022-08-14T10:44:13;94274.59;;;23.42;56.35
41688;BME280;27371;42.686;23.362;2022-08-14T10:49:20;94252.50;;;23.34;56.22
41688;BME280;27371;42.686;23.362;2022-08-14T10:52:09;94245.31;;;23.31;55.83
41688;BME280;27371;42.686;23.362;2022-08-14T10:54:36;94256.19;;;23.47;56.23
41688;BME280;27371;42.686;23.362;2022-08-14T10:57:27;94265.72;;;23.73;55.18
41688;BME280;27371;42.686;23.362;2022-08-14T10:59:59;94248.47;;;23.84;54.09
41688;BME280;27371;42.686;23.362;2022-08-14T11:02:34;94248.31;;;24.02;54.62
41688;BME280;27371;42.686;23.362;2022-08-14T11:07:39;94234.78;;;24.47;53.16
41688;BME280;27371;42.686;23.362;2022-08-14T11:10:14;94235.50;;;24.47;52.81
41688;BME280;27371;42.686;23.362;2022-08-14T11:12:45;94235.94;;;24.34;52.71
41688;BME280;27371;42.686;23.362;2022-08-14T11:15:19;94227.34;;;24.20;52.83
41688;BME280;27371;42.686;23.362;2022-08-14T11:17:46;94227.78;;;24.16;52.24
41688;BME280;27371;42.686;23.362;2022-08-14T11:20:17;94227.78;;;24.16;51.98
41688;BME280;27371;42.686;23.362;2022-08-14T11:22:43;94223.38;;;24.23;52.04
41688;BME280;27371;42.686;23.362;2022-08-14T11:25:14;94235.38;;;24.35;51.73
41688;BME280;27371;42.686;23.362;2022-08-14T11:27:42;94225.00;;;24.26;51.04
41688;BME280;27371;42.686;23.362;2022-08-14T11:30:11;94222.94;;;24.27;50.82
41688;BME280;27371;42.686;23.362;2022-08-14T11:32:42;94219.81;;;24.42;51.03
41688;BME280;27371;42.686;23.362;2022-08-14T11:35:13;94230.81;;;24.50;50.56
41688;BME280;27371;42.686;23.362;2022-08-14T11:37:49;94231.38;;;24.58;49.86
41688;BME280;27371;42.686;23.362;2022-08-14T11:40:17;94225.81;;;24.58;49.46
41688;BME280;27371;42.686;23.362;2022-08-14T11:42:46;94231.97;;;24.56;49.52
41688;BME280;27371;42.686;23.362;2022-08-14T11:45:12;94233.91;;;24.44;49.69
41688;BME280;27371;42.686;23.362;2022-08-14T11:47:37;94234.66;;;24.35;49.88
41688;BME280;27371;42.686;23.362;2022-08-14T11:50:17;94231.91;;;24.15;50.36
41688;BME280;27371;42.686;23.362;2022-08-14T11:52:44;94236.44;;;24.11;50.84
41688;BME280;27371;42.686;23.362;2022-08-14T11:55:12;94237.78;;;24.10;50.92
41688;BME280;27371;42.686;23.362;2022-08-14T11:57:43;94231.75;;;24.13;51.07
41688;BME280;27371;42.686;23.362;2022-08-14T12:00:14;94231.03;;;24.13;51.05
41688;BME280;27371;42.686;23.362;2022-08-14T12:02:51;94228.09;;;24.11;51.11
41688;BME280;27371;42.686;23.362;2022-08-14T12:05:37;94222.38;;;24.09;51.05
41688;BME280;27371;42.686;23.362;2022-08-14T12:08:08;94225.47;;;24.13;50.65
41688;BME280;27371;42.686;23.362;2022-08-14T12:10:39;94219.34;;;24.05;50.91
41688;BME280;27371;42.686;23.362;2022-08-14T12:13:11;94231.47;;;24.19;50.62
41688;BME280;27371;42.686;23.362;2022-08-14T12:15:38;94226.31;;;24.25;50.30
41688;BME280;27371;42.686;23.362;2022-08-14T12:18:05;94217.38;;;24.27;50.28
41688;BME280;27371;42.686;23.362;2022-08-14T12:20:36;94220.28;;;24.29;49.75
41688;BME280;27371;42.686;23.362;2022-08-14T12:23:06;94211.81;;;24.27;49.56
41688;BME280;27371;42.686;23.362;2022-08-14T12:25:33;94206.88;;;24.15;49.82
41688;BME280;27371;42.686;23.362;2022-08-14T12:28:02;94216.50;;;24.24;49.97
41688;BME280;27371;42.686;23.362;2022-08-14T12:30:36;94207.56;;;24.26;49.56
41688;BME280;27371;42.686;23.362;2022-08-14T12:33:05;94206.72;;;24.13;49.95
41688;BME280;27371;42.686;23.362;2022-08-14T12:35:37;94199.41;;;24.08;50.16
41688;BME280;27371;42.686;23.362;2022-08-14T12:38:04;94197.97;;;23.97;50.34
41688;BME280;27371;42.686;23.362;2022-08-14T12:40:30;94194.03;;;23.81;50.72
41688;BME280;27371;42.686;23.362;2022-08-14T12:43:02;94193.59;;;23.75;51.32
41688;BME280;27371;42.686;23.362;2022-08-14T12:45:32;94200.16;;;23.70;51.21
41688;BME280;27371;42.686;23.362;2022-08-14T12:48:00;94197.97;;;23.59;52.68
41688;BME280;27371;42.686;23.362;2022-08-14T12:50:39;94198.97;;;23.34;53.85
41688;BME280;27371;42.686;23.362;2022-08-14T12:53:07;94191.22;;;23.23;54.71
41688;BME280;27371;42.686;23.362;2022-08-14T12:55:35;94186.97;;;23.22;54.85
41688;BME280;27371;42.686;23.362;2022-08-14T12:58:03;94182.16;;;23.22;55.00
41688;BME280;27371;42.686;23.362;2022-08-14T13:00:35;94182.72;;;23.11;55.88
41688;BME280;27371;42.686;23.362;2022-08-14T13:03:02;94178.91;;;23.06;56.76
41688;BME280;27371;42.686;23.362;2022-08-14T13:05:32;94167.31;;;22.90;59.06
41688;BME280;27371;42.686;23.362;2022-08-14T13:08:01;94170.47;;;22.67;60.70
41688;BME280;27371;42.686;23.362;2022-08-14T13:10:30;94174.25;;;22.62;61.64
41688;BME280;27371;42.686;23.362;2022-08-14T13:12:57;94173.06;;;22.56;62.68
41688;BME280;27371;42.686;23.362;2022-08-14T13:15:24;94170.31;;;22.29;64.35
41688;BME280;27371;42.686;23.362;2022-08-14T13:17:53;94159.91;;;22.19;64.72
41688;BME280;27371;42.686;23.362;2022-08-14T13:20:23;94150.94;;;22.11;65.23